Time;durP1;ratioP1;P1;durP2;ratioP2;P2;SDS_P1;SDS_P2;PMS_P1;PMS_P2;Temp;Humidity;BMP_temperature;BMP_pressure;BME280_temperature;BME280_humidity;BME280_pressure;Samples;Min_cycle;Max_cycle;Signal;HPM_P1;HPM_P2
2023/11/09 00:00:58;;;;;;;14.90;4.40;;;3.60;98.00;;;;;;5055316;28;20950;-68
2023/11/09 00:03:26;;;;;;;9.10;4.40;;;3.70;98.00;;;;;;5055527;28;20542;-68
2023/11/09 00:05:54;;;;;;;6.77;3.97;;;3.70;98.00;;;;;;5055265;28;20983;-68
2023/11/09 00:08:21;;;;;;;8.37;4.13;;;3.70;98.00;;;;;;5055422;28;20468;-68
2023/11/09 00:10:49;;;;;;;10.27;4.47;;;3.80;98.00;;;;;;5055415;28;20462;-68
2023/11/09 00:13:18;;;;;;;7.97;4.17;;;3.60;98.00;;;;;;5055381;28;20451;-68
2023/11/09 00:15:45;;;;;;;8.20;4.20;;;3.60;98.00;;;;;;5053812;28;20549;-68
2023/11/09 00:18:12;;;;;;;7.83;3.60;;;3.50;98.00;;;;;;5055390;28;20447;-68
2023/11/09 00:20:41;;;;;;;8.40;3.97;;;3.60;98.00;;;;;;5055215;28;20507;-68
2023/11/09 00:23:08;;;;;;;11.40;4.50;;;3.50;98.00;;;;;;5055111;28;20462;-68
2023/11/09 00:25:36;;;;;;;7.17;4.13;;;3.50;98.00;;;;;;5055063;28;20451;-68
2023/11/09 00:28:03;;;;;;;8.77;4.23;;;3.50;98.00;;;;;;5054909;28;20455;-68
2023/11/09 00:30:32;;;;;;;12.73;4.40;;;3.60;98.00;;;;;;5055078;28;20537;-68
2023/11/09 00:32:59;;;;;;;10.17;3.83;;;3.50;98.00;;;;;;5055213;28;20449;-68
2023/11/09 00:35:26;;;;;;;8.77;4.00;;;3.50;98.00;;;;;;5054763;28;20452;-68
2023/11/09 00:37:55;;;;;;;9.13;4.60;;;3.40;98.00;;;;;;5037174;28;20479;-68
2023/11/09 00:40:23;;;;;;;12.40;4.37;;;3.50;98.00;;;;;;5054918;28;20459;-68
2023/11/09 00:42:50;;;;;;;7.77;4.40;;;3.40;98.00;;;;;;5055135;28;20513;-68
2023/11/09 00:45:17;;;;;;;10.60;4.73;;;3.30;98.00;;;;;;5054698;28;20467;-68
2023/11/09 00:47:45;;;;;;;7.93;4.10;;;3.20;98.00;;;;;;5054738;28;20455;-68
2023/11/09 00:50:13;;;;;;;8.30;4.37;;;3.20;98.00;;;;;;5054602;28;20447;-68
2023/11/09 00:52:41;;;;;;;10.50;4.50;;;3.30;98.00;;;;;;5054889;28;20481;-68
2023/11/09 00:55:10;;;;;;;8.50;4.10;;;3.10;98.00;;;;;;5054145;28;20456;-68
2023/11/09 00:57:38;;;;;;;9.60;4.47;;;3.20;98.00;;;;;;5055109;28;20964;-68
2023/11/09 01:00:06;;;;;;;6.60;3.70;;;3.10;98.00;;;;;;5054566;28;20459;-68
2023/11/09 01:02:37;;;;;;;7.27;4.00;;;3.40;98.00;;;;;;5054503;28;20857;-68
2023/11/09 01:05:06;;;;;;;8.63;4.20;;;3.40;98.00;;;;;;5054328;28;20952;-68
2023/11/09 01:07:33;;;;;;;8.97;3.87;;;3.50;98.00;;;;;;5054421;28;20456;-69
2023/11/09 01:10:00;;;;;;;7.53;3.90;;;3.60;98.00;;;;;;5053927;28;20463;-68
2023/11/09 01:12:29;;;;;;;11.70;4.20;;;3.60;98.00;;;;;;5053136;28;20455;-68
2023/11/09 01:14:57;;;;;;;7.77;3.70;;;3.50;98.00;;;;;;5054250;28;20464;-68
2023/11/09 01:17:24;;;;;;;7.97;4.10;;;3.50;98.00;;;;;;5054012;28;20960;-68
2023/11/09 01:19:51;;;;;;;8.70;4.77;;;3.40;98.00;;;;;;5053846;28;21016;-68
2023/11/09 01:22:19;;;;;;;8.70;3.97;;;3.50;98.00;;;;;;5053624;28;20455;-68
2023/11/09 01:24:47;;;;;;;8.47;3.93;;;3.50;98.00;;;;;;5054063;28;20458;-68
2023/11/09 01:27:14;;;;;;;8.13;4.20;;;3.50;98.00;;;;;;5053826;28;20459;-68
2023/11/09 01:29:43;;;;;;;6.23;3.40;;;3.60;98.00;;;;;;5053801;28;20443;-68
2023/11/09 01:32:11;;;;;;;7.77;4.00;;;3.50;98.00;;;;;;5053657;28;20443;-68
2023/11/09 01:34:38;;;;;;;9.73;4.20;;;3.50;98.00;;;;;;5052866;28;20455;-68
2023/11/09 01:37:10;;;;;;;7.30;3.30;;;3.30;98.00;;;;;;5052327;28;20859;-68
2023/11/09 01:39:38;;;;;;;8.80;3.80;;;3.20;98.00;;;;;;5053680;28;21205;-68
2023/11/09 01:42:06;;;;;;;12.70;4.40;;;3.30;98.00;;;;;;5052174;28;20801;-68
2023/11/09 01:44:33;;;;;;;7.17;3.67;;;3.20;98.00;;;;;;5053529;28;21127;-68
2023/11/09 01:47:03;;;;;;;9.07;4.07;;;3.30;98.00;;;;;;5051709;28;20492;-68
2023/11/09 01:49:31;;;;;;;9.33;3.70;;;3.40;98.00;;;;;;5053497;28;20453;-68
2023/11/09 01:52:01;;;;;;;12.20;4.50;;;3.60;98.00;;;;;;5053234;28;20496;-68
2023/11/09 01:54:30;;;;;;;7.93;3.90;;;3.40;98.00;;;;;;5053363;28;20509;-68
2023/11/09 01:56:58;;;;;;;18.40;4.13;;;3.50;98.00;;;;;;5053146;28;20918;-68
2023/11/09 01:59:28;;;;;;;8.33;3.53;;;3.50;98.00;;;;;;5052277;28;20517;-68
2023/11/09 02:01:56;;;;;;;10.50;4.60;;;3.40;98.00;;;;;;5053171;28;20459;-68
2023/11/09 02:04:25;;;;;;;5.77;3.10;;;3.30;98.00;;;;;;5053198;28;20547;-68
2023/11/09 02:06:53;;;;;;;6.40;3.50;;;3.30;98.00;;;;;;5052232;28;20521;-68
2023/11/09 02:09:21;;;;;;;10.00;3.20;;;3.50;98.00;;;;;;5053216;28;20456;-68
2023/11/09 02:11:49;;;;;;;7.10;3.50;;;3.40;98.00;;;;;;5053097;28;20469;-68
2023/11/09 02:14:17;;;;;;;10.63;3.50;;;3.40;98.00;;;;;;5052861;28;20463;-68
2023/11/09 02:16:46;;;;;;;7.80;3.43;;;3.40;98.00;;;;;;5051814;28;20479;-68
2023/11/09 02:19:17;;;;;;;7.83;3.27;;;3.40;98.00;;;;;;5053151;28;20452;-68
2023/11/09 02:21:51;;;;;;;6.77;3.23;;;3.40;98.00;;;;;;5052946;28;20519;-68
2023/11/09 02:24:21;;;;;;;4.80;3.20;;;3.30;98.00;;;;;;5053092;28;20482;-68
2023/11/09 02:26:48;;;;;;;4.13;2.80;;;3.50;98.00;;;;;;5052764;28;20866;-68
2023/11/09 02:29:17;;;;;;;6.30;3.00;;;3.40;98.00;;;;;;5051669;28;20452;-68
2023/11/09 02:31:44;;;;;;;5.00;2.73;;;3.40;98.00;;;;;;5052918;28;20567;-68
2023/11/09 02:34:12;;;;;;;8.70;3.97;;;3.20;98.00;;;;;;5052879;28;20461;-68
2023/11/09 02:36:39;;;;;;;5.30;2.83;;;3.10;98.00;;;;;;5051131;28;21051;-68
2023/11/09 02:39:09;;;;;;;10.30;3.10;;;3.30;98.00;;;;;;5052546;28;20812;-68
2023/11/09 02:41:38;;;;;;;8.83;4.03;;;3.40;98.00;;;;;;5052541;28;20505;-68
2023/11/09 02:44:05;;;;;;;5.77;3.37;;;3.50;98.00;;;;;;5052605;28;20464;-68
2023/11/09 02:46:33;;;;;;;7.33;3.03;;;3.40;98.00;;;;;;5052075;28;20450;-68
2023/11/09 02:49:02;;;;;;;6.27;3.40;;;3.50;98.00;;;;;;5052540;28;20455;-68
2023/11/09 02:51:29;;;;;;;6.07;3.00;;;3.50;98.00;;;;;;5052209;28;20474;-68
2023/11/09 02:53:56;;;;;;;5.83;3.17;;;3.40;98.00;;;;;;5052372;28;20455;-68
2023/11/09 02:56:23;;;;;;;5.30;3.10;;;3.10;98.00;;;;;;5051895;28;20512;-68
2023/11/09 02:58:52;;;;;;;6.13;3.30;;;3.10;98.00;;;;;;5052140;28;20449;-68
2023/11/09 03:01:19;;;;;;;8.67;3.00;;;3.10;98.00;;;;;;5051817;28;20984;-68
2023/11/09 03:03:47;;;;;;;5.20;3.10;;;3.40;98.00;;;;;;5052054;28;20542;-68
2023/11/09 03:06:14;;;;;;;8.40;3.57;;;3.20;98.00;;;;;;5050660;28;20986;-68
2023/11/09 03:08:42;;;;;;;4.47;2.80;;;3.20;98.00;;;;;;5051793;28;20539;-68
2023/11/09 03:11:09;;;;;;;6.80;2.97;;;3.10;98.00;;;;;;5051791;28;20529;-68
2023/11/09 03:13:39;;;;;;;7.03;3.10;;;3.10;98.00;;;;;;5051869;28;20443;-68
2023/11/09 03:16:08;;;;;;;5.80;3.23;;;3.10;98.00;;;;;;5051703;28;20453;-67
2023/11/09 03:18:35;;;;;;;4.57;2.70;;;2.90;98.00;;;;;;5051643;28;20491;-68
2023/11/09 03:21:02;;;;;;;11.13;3.27;;;2.90;98.00;;;;;;5050469;28;20446;-68
2023/11/09 03:23:30;;;;;;;7.50;3.07;;;2.90;98.00;;;;;;5051746;28;20453;-68
2023/11/09 03:25:57;;;;;;;5.03;2.90;;;3.00;98.00;;;;;;5051681;28;20827;-68
2023/11/09 03:28:24;;;;;;;6.47;2.93;;;2.80;98.00;;;;;;5051710;28;20462;-68
2023/11/09 03:30:51;;;;;;;7.63;3.20;;;2.70;98.00;;;;;;5051563;28;20450;-68
2023/11/09 03:33:19;;;;;;;4.70;2.80;;;2.70;98.00;;;;;;5051537;28;20944;-68
2023/11/09 03:35:46;;;;;;;5.43;2.87;;;2.80;98.00;;;;;;5051471;28;20536;-68
2023/11/09 03:38:13;;;;;;;9.30;3.27;;;2.90;98.00;;;;;;5051438;28;21161;-68
2023/11/09 03:40:43;;;;;;;4.87;2.80;;;3.10;98.00;;;;;;5051542;28;20459;-68
2023/11/09 03:43:10;;;;;;;8.00;3.50;;;3.10;98.00;;;;;;5050340;28;20450;-68
2023/11/09 03:45:37;;;;;;;4.90;2.70;;;3.10;98.00;;;;;;5051434;28;20780;-68
2023/11/09 03:48:05;;;;;;;13.93;3.33;;;3.00;98.00;;;;;;5051411;28;20455;-68
2023/11/09 03:50:33;;;;;;;6.20;3.10;;;3.00;98.00;;;;;;5049869;28;20463;-68
2023/11/09 03:53:00;;;;;;;6.43;2.83;;;2.80;98.00;;;;;;5051335;28;20451;-68
2023/11/09 03:55:27;;;;;;;4.20;2.50;;;2.80;98.00;;;;;;5051117;28;20446;-68
2023/11/09 03:57:54;;;;;;;5.03;2.80;;;2.70;98.00;;;;;;5050742;28;20485;-68
2023/11/09 04:00:21;;;;;;;5.07;2.80;;;2.90;98.00;;;;;;5050870;28;20447;-68
2023/11/09 04:02:51;;;;;;;7.57;2.50;;;3.00;98.00;;;;;;5050885;28;20454;-68
2023/11/09 04:05:18;;;;;;;4.83;2.57;;;3.10;98.00;;;;;;5051498;28;20797;-68
2023/11/09 04:07:47;;;;;;;3.60;2.43;;;3.00;98.00;;;;;;5051567;28;20787;-68
2023/11/09 04:10:16;;;;;;;7.33;2.47;;;3.00;98.00;;;;;;5051258;28;20451;-68
2023/11/09 04:12:45;;;;;;;4.10;2.90;;;3.10;98.00;;;;;;5051364;28;20450;-68
2023/11/09 04:15:12;;;;;;;5.33;2.63;;;3.10;98.00;;;;;;5051432;28;20457;-68
2023/11/09 04:17:39;;;;;;;4.47;2.60;;;2.90;98.00;;;;;;5051509;28;20517;-68
2023/11/09 04:20:08;;;;;;;5.87;2.50;;;2.90;98.00;;;;;;5051436;28;20519;-68
2023/11/09 04:22:35;;;;;;;3.83;2.17;;;3.00;98.00;;;;;;5051471;28;20547;-68
2023/11/09 04:25:04;;;;;;;3.30;2.27;;;3.00;98.00;;;;;;5051569;28;20462;-68
2023/11/09 04:30:20;;;;;;;3.70;2.10;;;2.90;98.00;;;;;;5053688;28;20458;-68
2023/11/09 04:32:47;;;;;;;6.73;2.47;;;2.90;98.00;;;;;;5054692;28;20531;-68
2023/11/09 04:35:15;;;;;;;7.20;2.80;;;2.90;98.00;;;;;;5054626;28;20486;-68
2023/11/09 04:37:42;;;;;;;3.97;2.53;;;3.00;98.00;;;;;;5054887;28;20508;-68
2023/11/09 04:40:14;;;;;;;4.53;2.30;;;3.00;98.00;;;;;;5054798;28;20961;-68
2023/11/09 04:42:41;;;;;;;3.90;2.43;;;2.90;98.00;;;;;;5054563;28;20519;-67
2023/11/09 04:45:11;;;;;;;5.40;2.50;;;2.90;98.00;;;;;;5054458;28;20450;-68
2023/11/09 04:47:41;;;;;;;4.20;2.20;;;2.90;98.00;;;;;;5036949;28;20453;-68
2023/11/09 04:50:14;;;;;;;4.67;2.40;;;2.80;98.00;;;;;;5054354;28;20871;-68
2023/11/09 04:52:44;;;;;;;4.60;2.30;;;2.80;98.00;;;;;;5054393;28;20514;-68
2023/11/09 04:55:20;;;;;;;4.67;2.43;;;2.80;98.00;;;;;;5054292;28;20454;-68
2023/11/09 05:08:45;;;;;;;5.67;2.40;;;3.00;98.00;;;;;;5053296;28;20956;-68
2023/11/09 05:11:17;;;;;;;5.17;2.63;;;2.90;98.00;;;;;;5054044;28;20465;-68
2023/11/09 05:13:44;;;;;;;4.40;2.60;;;2.90;98.00;;;;;;5054055;28;20528;-68
2023/11/09 05:16:12;;;;;;;3.90;2.40;;;2.90;98.00;;;;;;5054072;28;20465;-68
2023/11/09 05:18:39;;;;;;;7.20;2.43;;;2.80;98.00;;;;;;5053986;28;20494;-68
2023/11/09 05:21:06;;;;;;;5.13;2.30;;;2.80;98.00;;;;;;5053744;28;20455;-68
2023/11/09 05:23:33;;;;;;;5.47;2.10;;;2.90;98.00;;;;;;5053920;28;20455;-68
2023/11/09 05:26:01;;;;;;;5.83;2.90;;;3.00;98.00;;;;;;5053760;28;20453;-68
2023/11/09 05:28:29;;;;;;;2.83;2.07;;;3.10;98.00;;;;;;5036436;28;20459;-68
2023/11/09 05:30:57;;;;;;;2.87;2.03;;;3.20;98.00;;;;;;5053520;28;20452;-68
2023/11/09 05:33:24;;;;;;;6.03;2.83;;;3.20;98.00;;;;;;5053695;28;20470;-68
2023/11/09 05:35:54;;;;;;;3.50;2.23;;;3.10;98.00;;;;;;5053787;28;20458;-68
2023/11/09 05:38:21;;;;;;;3.00;2.20;;;3.10;98.00;;;;;;5053633;28;20498;-68
2023/11/09 05:40:49;;;;;;;3.07;2.30;;;2.90;98.00;;;;;;5051006;28;20461;-68
2023/11/09 05:43:16;;;;;;;6.50;2.50;;;2.90;98.00;;;;;;5053571;28;20453;-68
2023/11/09 05:45:44;;;;;;;7.00;2.60;;;2.80;98.00;;;;;;5053398;28;20931;-68
2023/11/09 05:48:12;;;;;;;5.00;2.40;;;2.70;98.00;;;;;;5053626;28;20478;-68
2023/11/09 05:50:39;;;;;;;4.67;2.33;;;2.70;98.00;;;;;;5053195;28;20452;-68
2023/11/09 05:53:06;;;;;;;6.07;2.77;;;2.70;98.00;;;;;;5053368;28;20455;-68
2023/11/09 05:55:33;;;;;;;3.03;2.10;;;2.80;98.00;;;;;;5052112;28;20462;-68
2023/11/09 05:58:01;;;;;;;5.40;2.30;;;2.90;98.00;;;;;;5053506;28;20494;-68
2023/11/09 06:00:28;;;;;;;3.93;2.37;;;2.90;98.00;;;;;;5053145;28;20932;-68
2023/11/09 06:02:58;;;;;;;3.13;2.20;;;3.00;98.00;;;;;;5051946;28;21071;-68
2023/11/09 06:05:25;;;;;;;6.63;2.27;;;2.90;98.00;;;;;;5053342;28;20452;-68
2023/11/09 06:07:52;;;;;;;4.40;2.30;;;2.80;98.00;;;;;;5053060;28;20490;-68
2023/11/09 06:10:20;;;;;;;7.27;2.30;;;2.90;98.00;;;;;;5052877;28;20453;-68
2023/11/09 06:12:49;;;;;;;4.70;2.67;;;3.10;98.00;;;;;;5053202;28;20451;-68
2023/11/09 06:15:16;;;;;;;3.73;2.30;;;3.10;98.00;;;;;;5052675;28;20459;-68
2023/11/09 06:17:43;;;;;;;3.03;2.20;;;3.10;98.00;;;;;;5052609;28;20577;-68
2023/11/09 06:20:16;;;;;;;6.60;2.60;;;3.20;98.00;;;;;;5052781;28;20508;-68
2023/11/09 06:22:44;;;;;;;4.53;2.50;;;3.00;98.00;;;;;;5052672;28;20811;-68
2023/11/09 06:25:12;;;;;;;4.90;2.50;;;3.00;98.00;;;;;;5052564;28;21011;-68
2023/11/09 06:27:40;;;;;;;6.80;2.50;;;3.00;98.00;;;;;;5052494;28;20487;-68
2023/11/09 06:30:09;;;;;;;5.07;2.43;;;3.10;98.00;;;;;;5052358;28;20457;-68
2023/11/09 06:32:36;;;;;;;4.87;2.50;;;3.10;98.00;;;;;;5052481;28;20473;-68
2023/11/09 06:35:13;;;;;;;5.10;2.30;;;3.10;98.00;;;;;;5052564;28;20969;-68
2023/11/09 06:37:45;;;;;;;5.17;2.57;;;3.10;98.00;;;;;;5052281;28;20526;-68
2023/11/09 06:40:16;;;;;;;4.40;2.60;;;3.20;98.00;;;;;;5052217;28;20938;-68
2023/11/09 06:42:44;;;;;;;5.23;2.80;;;3.30;98.00;;;;;;5052111;28;20545;-68
2023/11/09 06:45:11;;;;;;;4.43;2.67;;;3.20;98.00;;;;;;5052314;28;20447;-68
2023/11/09 06:47:41;;;;;;;5.93;3.10;;;3.20;98.00;;;;;;5052014;28;20453;-68
2023/11/09 06:50:12;;;;;;;3.50;2.40;;;3.20;98.00;;;;;;5052174;28;20479;-68
2023/11/09 06:52:42;;;;;;;3.67;2.47;;;3.30;98.00;;;;;;5051791;28;20524;-68
2023/11/09 06:55:10;;;;;;;6.93;2.70;;;3.20;98.00;;;;;;5052050;28;20458;-68
2023/11/09 06:57:39;;;;;;;5.30;3.03;;;3.40;98.00;;;;;;5051883;28;20917;-65
2023/11/09 07:00:10;;;;;;;5.10;2.30;;;3.60;98.00;;;;;;5051738;28;20447;-63
2023/11/09 07:02:38;;;;;;;3.80;2.50;;;3.50;98.00;;;;;;5052012;28;20461;-63
2023/11/09 07:05:07;;;;;;;5.40;3.07;;;3.50;98.00;;;;;;5051984;28;20463;-64
2023/11/09 07:07:34;;;;;;;6.20;2.87;;;3.60;98.00;;;;;;5052111;28;20482;-63
2023/11/09 07:10:04;;;;;;;4.37;2.60;;;3.60;98.00;;;;;;5051970;28;20460;-63
2023/11/09 07:12:31;;;;;;;4.97;3.10;;;3.60;98.00;;;;;;5051631;28;20450;-63
2023/11/09 07:14:58;;;;;;;3.80;2.33;;;3.60;98.00;;;;;;5051086;28;20468;-64
2023/11/09 07:17:25;;;;;;;3.83;2.60;;;3.70;98.00;;;;;;5051285;28;20527;-63
2023/11/09 07:19:53;;;;;;;4.03;2.30;;;3.70;98.00;;;;;;5051151;28;20486;-64
2023/11/09 07:22:21;;;;;;;3.47;2.10;;;3.70;98.00;;;;;;5050848;28;21038;-63
2023/11/09 07:24:52;;;;;;;5.33;2.90;;;3.80;98.00;;;;;;5049840;28;20876;-63
2023/11/09 07:27:21;;;;;;;9.23;2.70;;;3.90;98.00;;;;;;5051055;28;20960;-63
2023/11/09 07:29:48;;;;;;;2.73;2.23;;;3.90;98.00;;;;;;5050868;28;20459;-63
2023/11/09 07:32:15;;;;;;;4.03;2.63;;;3.90;98.00;;;;;;5051108;28;20468;-63
2023/11/09 07:34:42;;;;;;;5.63;2.20;;;4.20;98.00;;;;;;5051144;28;20464;-64
2023/11/09 07:37:11;;;;;;;4.63;2.50;;;4.30;98.00;;;;;;5050962;28;20451;-63
2023/11/09 07:39:40;;;;;;;3.73;2.40;;;4.40;98.00;;;;;;5050831;28;21038;-63
2023/11/09 07:42:08;;;;;;;2.90;2.30;;;4.40;98.00;;;;;;5050960;28;20456;-63
2023/11/09 07:44:37;;;;;;;3.23;2.33;;;4.40;98.00;;;;;;5051302;28;20541;-63
2023/11/09 07:47:05;;;;;;;5.63;3.10;;;4.40;98.00;;;;;;5051001;28;20504;-63
2023/11/09 07:49:32;;;;;;;4.60;3.17;;;4.40;98.00;;;;;;5050727;28;20452;-63
2023/11/09 07:51:59;;;;;;;8.57;3.30;;;4.50;98.00;;;;;;5050690;28;20942;-63
2023/11/09 07:54:26;;;;;;;10.30;3.47;;;4.60;98.00;;;;;;5051047;28;20496;-63
2023/11/09 07:56:55;;;;;;;7.03;3.27;;;4.60;98.00;;;;;;5050787;28;20458;-63
2023/11/09 07:59:23;;;;;;;7.87;3.70;;;4.60;98.00;;;;;;5050659;28;20489;-63
2023/11/09 08:01:51;;;;;;;5.90;3.30;;;4.70;98.00;;;;;;5050857;28;20542;-63
2023/11/09 08:04:18;;;;;;;5.00;3.00;;;4.70;98.00;;;;;;5051629;28;20525;-63
2023/11/09 08:06:46;;;;;;;6.07;2.80;;;4.60;98.00;;;;;;5054618;28;20540;-63
2023/11/09 08:09:15;;;;;;;5.50;2.93;;;4.70;98.00;;;;;;5054552;28;20460;-63
2023/11/09 08:11:43;;;;;;;5.30;3.13;;;4.70;98.00;;;;;;5054538;28;20531;-63
2023/11/09 08:14:10;;;;;;;5.87;3.50;;;4.60;98.00;;;;;;5054502;28;20541;-64
2023/11/09 08:16:37;;;;;;;6.50;2.90;;;4.60;98.00;;;;;;5054441;28;20483;-63
2023/11/09 08:19:06;;;;;;;5.27;2.90;;;4.80;98.00;;;;;;5054250;28;21018;-64
2023/11/09 08:21:34;;;;;;;5.20;3.10;;;4.70;98.00;;;;;;5054286;28;20451;-63
2023/11/09 08:24:02;;;;;;;4.93;3.00;;;4.90;98.00;;;;;;5054243;28;20496;-63
2023/11/09 08:26:33;;;;;;;5.20;2.90;;;4.90;98.00;;;;;;5054444;28;20488;-63
2023/11/09 08:29:01;;;;;;;7.97;3.60;;;4.90;98.00;;;;;;5054043;28;20455;-63
2023/11/09 08:31:33;;;;;;;13.87;4.30;;;5.00;98.00;;;;;;5053993;28;20825;-63
2023/11/09 08:34:01;;;;;;;6.30;3.03;;;5.10;98.00;;;;;;5050478;28;20810;-63
2023/11/09 08:36:29;;;;;;;4.93;2.70;;;5.20;98.00;;;;;;5033453;28;20457;-63
2023/11/09 08:38:57;;;;;;;5.40;3.07;;;5.40;98.00;;;;;;5034286;28;20516;-63
2023/11/09 08:41:26;;;;;;;4.30;2.40;;;5.50;98.00;;;;;;5033807;28;20447;-63
2023/11/09 08:43:53;;;;;;;10.40;3.17;;;5.60;98.00;;;;;;5033946;28;20509;-63
2023/11/09 08:46:21;;;;;;;6.03;3.20;;;5.70;98.00;;;;;;5032554;28;20956;-63
2023/11/09 08:48:48;;;;;;;5.47;3.07;;;5.90;98.00;;;;;;5033759;28;20513;-62
2023/11/09 08:51:15;;;;;;;5.67;3.17;;;6.10;98.00;;;;;;5033718;28;20512;-63
2023/11/09 08:53:46;;;;;;;9.00;4.47;;;6.20;98.00;;;;;;5043622;28;20446;-63
2023/11/09 08:58:41;;;;;;;9.17;4.10;;;6.10;98.00;;;;;;5032257;28;20498;-63
2023/11/09 09:01:17;;;;;;;7.03;3.87;;;6.00;98.00;;;;;;5033654;28;20459;-63
2023/11/09 09:03:46;;;;;;;9.27;4.10;;;6.00;98.00;;;;;;5033749;28;20535;-63
2023/11/09 09:06:15;;;;;;;9.97;4.40;;;6.10;98.00;;;;;;5033601;28;20874;-62
2023/11/09 09:08:44;;;;;;;12.37;4.60;;;6.20;98.00;;;;;;5031690;28;20536;-63
2023/11/09 09:11:14;;;;;;;10.70;4.70;;;6.30;98.00;;;;;;5032839;28;20512;-63
2023/11/09 09:13:41;;;;;;;9.70;4.70;;;6.30;98.00;;;;;;5033508;28;20452;-63
2023/11/09 09:16:09;;;;;;;10.50;4.50;;;6.30;98.00;;;;;;5033161;28;20968;-63
2023/11/09 09:18:36;;;;;;;7.47;4.20;;;6.40;98.00;;;;;;5033563;28;20450;-63
2023/11/09 09:21:08;;;;;;;11.70;4.50;;;6.40;98.00;;;;;;5033398;28;20456;-63
2023/11/09 09:23:36;;;;;;;10.43;5.00;;;6.50;98.00;;;;;;5033603;28;20978;-63
2023/11/09 09:26:04;;;;;;;15.73;5.40;;;6.50;98.00;;;;;;5033468;28;20542;-63
2023/11/09 09:28:34;;;;;;;10.07;5.00;;;6.50;98.00;;;;;;5033230;28;20520;-63
2023/11/09 09:31:03;;;;;;;11.67;4.77;;;6.40;98.00;;;;;;5033162;28;20979;-62
2023/11/09 09:33:31;;;;;;;8.10;4.00;;;6.50;98.00;;;;;;5033249;28;20866;-63
2023/11/09 09:35:59;;;;;;;4.63;2.70;;;;;;;;;;5032949;28;20979;-63
2023/11/09 09:38:27;;;;;;;5.50;2.70;;;6.80;98.00;;;;;;5032335;28;20472;-63
2023/11/09 09:40:54;;;;;;;3.73;2.27;;;7.10;98.00;;;;;;5030853;28;20819;-63
2023/11/09 09:43:23;;;;;;;3.33;2.23;;;7.30;98.00;;;;;;5031737;28;20952;-63
2023/11/09 09:45:57;;;;;;;2.77;1.90;;;7.50;98.00;;;;;;5015557;28;20460;-63
2023/11/09 09:48:27;;;;;;;3.70;1.87;;;;;;;;;;5032770;28;20555;-63
2023/11/09 09:50:55;;;;;;;4.57;2.30;;;8.00;98.00;;;;;;5031280;28;20484;-63
2023/11/09 09:53:25;;;;;;;3.77;2.20;;;8.30;98.00;;;;;;5032849;28;20451;-63
2023/11/09 09:55:54;;;;;;;4.43;2.37;;;8.50;98.00;;;;;;5032520;28;20452;-63
2023/11/09 09:58:21;;;;;;;3.17;1.93;;;8.60;98.00;;;;;;5032552;28;20465;-63
2023/11/09 10:00:52;;;;;;;3.03;1.93;;;8.60;98.00;;;;;;5032333;28;20596;-63
2023/11/09 10:03:23;;;;;;;5.07;2.10;;;8.60;98.00;;;;;;5032265;28;20454;-63
2023/11/09 10:05:50;;;;;;;3.87;2.20;;;8.80;98.00;;;;;;5032624;28;20456;-63
2023/11/09 10:08:17;;;;;;;3.20;1.90;;;9.00;98.00;;;;;;5032370;28;20458;-63
2023/11/09 10:10:47;;;;;;;3.60;2.17;;;9.10;98.00;;;;;;5032283;28;20866;-64
2023/11/09 10:13:15;;;;;;;4.17;2.20;;;9.10;98.00;;;;;;5030946;28;20469;-63
2023/11/09 10:15:44;;;;;;;2.57;1.80;;;9.30;98.00;;;;;;5033083;28;20870;-63
2023/11/09 10:18:12;;;;;;;2.10;1.60;;;9.30;98.00;;;;;;5032432;28;20841;-63
2023/11/09 10:20:56;;;;;;;3.67;2.20;;;9.50;98.00;;;;;;5031892;28;20482;-64
2023/11/09 10:23:25;;;;;;;2.70;1.90;;;9.60;98.00;;;;;;5032214;28;20459;-63
2023/11/09 10:25:53;;;;;;;2.90;1.90;;;9.70;98.00;;;;;;5030439;28;21007;-63
2023/11/09 10:28:21;;;;;;;2.70;1.77;;;9.80;98.00;;;;;;5028320;28;20550;-63
2023/11/09 10:30:49;;;;;;;3.63;2.17;;;9.90;98.00;;;;;;5030815;28;20457;-63
2023/11/09 10:33:17;;;;;;;4.23;2.10;;;9.90;98.00;;;;;;5031103;28;20493;-64
2023/11/09 10:35:47;;;;;;;3.33;1.90;;;10.00;98.00;;;;;;5030688;28;20464;-63
2023/11/09 10:38:20;;;;;;;2.87;2.00;;;10.30;98.00;;;;;;5031911;28;20448;-63
2023/11/09 10:40:49;;;;;;;2.83;1.80;;;10.40;98.00;;;;;;5031631;28;20480;-64
2023/11/09 10:43:16;;;;;;;2.47;1.70;;;10.50;98.00;;;;;;5031789;28;20451;-64
2023/11/09 10:45:49;;;;;;;3.10;2.10;;;10.60;98.00;;;;;;5032156;28;20936;-64
2023/11/09 10:48:18;;;;;;;3.20;2.00;;;10.70;98.00;;;;;;5032193;28;20461;-63
2023/11/09 10:50:48;;;;;;;4.63;2.83;;;10.80;98.00;;;;;;5031760;28;20546;-64
2023/11/09 10:53:16;;;;;;;3.97;1.73;;;10.90;98.00;;;;;;5031824;28;20451;-64
2023/11/09 10:55:47;;;;;;;3.30;1.87;;;10.90;98.00;;;;;;5031697;28;20561;-64
2023/11/09 10:58:20;;;;;;;2.20;1.90;;;10.90;98.00;;;;;;5031551;28;20805;-64
2023/11/09 11:00:51;;;;;;;2.43;1.70;;;11.00;98.00;;;;;;5031691;28;20565;-63
2023/11/09 11:03:25;;;;;;;2.73;1.50;;;11.10;98.00;;;;;;5030476;28;20455;-64
2023/11/09 11:06:01;;;;;;;2.17;1.80;;;11.10;98.00;;;;;;5031432;28;20458;-63
2023/11/09 11:08:35;;;;;;;2.20;1.53;;;11.20;98.00;;;;;;5031510;28;20570;-64
2023/11/09 11:11:04;;;;;;;1.93;1.67;;;11.30;98.00;;;;;;5031414;28;20462;-64
2023/11/09 11:13:35;;;;;;;1.73;1.43;;;11.40;98.00;;;;;;5030202;28;20542;-63
2023/11/09 11:16:27;;;;;;;2.17;1.53;;;11.50;98.00;;;;;;5031213;28;20808;-64
2023/11/09 11:19:23;;;;;;;2.60;1.53;;;11.60;98.00;;;;;;5031305;28;20459;-64
2023/11/09 11:22:04;;;;;;;1.80;1.30;;;11.70;98.00;;;;;;5030690;28;20474;-64
2023/11/09 11:25:07;;;;;;;2.13;1.30;;;11.80;98.00;;;;;;5031016;28;20450;-63
2023/11/09 11:27:46;;;;;;;1.30;1.30;;;12.00;98.00;;;;;;5030926;28;20507;-63
2023/11/09 11:30:26;;;;;;;1.60;1.30;;;12.10;98.00;;;;;;5030916;28;20460;-63
2023/11/09 11:32:55;;;;;;;2.20;1.40;;;12.20;98.00;;;;;;5030956;28;20460;-64
2023/11/09 11:35:41;;;;;;;1.70;1.40;;;12.40;98.00;;;;;;5030024;28;20452;-64
2023/11/09 11:38:29;;;;;;;1.43;1.40;;;12.50;98.00;;;;;;5031518;28;20469;-63
2023/11/09 11:41:01;;;;;;;2.20;1.50;;;12.70;98.00;;;;;;5035097;28;20484;-64
2023/11/09 11:43:37;;;;;;;1.90;1.50;;;12.70;98.00;;;;;;5033773;28;20501;-63
2023/11/09 11:46:08;;;;;;;1.60;1.40;;;12.70;98.00;;;;;;5035024;28;20513;-63
2023/11/09 11:48:36;;;;;;;1.47;1.30;;;12.70;98.00;;;;;;5035157;28;20456;-64
2023/11/09 11:51:06;;;;;;;1.70;1.20;;;12.80;98.00;;;;;;5034938;28;20447;-64
2023/11/09 11:53:35;;;;;;;1.70;1.37;;;12.80;98.00;;;;;;5033783;28;20942;-63
2023/11/09 11:56:10;;;;;;;1.80;1.40;;;12.90;98.00;;;;;;5035161;28;20823;-62
2023/11/09 11:58:47;;;;;;;1.50;1.40;;;13.00;98.00;;;;;;5035133;28;20473;-63
2023/11/09 12:01:21;;;;;;;1.90;1.43;;;12.90;98.00;;;;;;5034620;28;20520;-63
2023/11/09 12:03:51;;;;;;;1.80;1.50;;;12.90;98.00;;;;;;5035119;28;20447;-63
2023/11/09 12:06:22;;;;;;;1.50;1.37;;;12.90;98.00;;;;;;5034711;28;20482;-63
2023/11/09 12:08:53;;;;;;;2.23;1.47;;;12.80;98.00;;;;;;5034552;28;20550;-63
2023/11/09 12:11:26;;;;;;;1.63;1.43;;;12.80;98.00;;;;;;5033191;28;20486;-63
2023/11/09 12:13:54;;;;;;;1.40;1.40;;;12.80;98.00;;;;;;5034579;28;20537;-64
2023/11/09 12:16:24;;;;;;;1.93;1.43;;;12.70;98.00;;;;;;5034556;28;20459;-63
2023/11/09 12:18:52;;;;;;;3.67;1.60;;;12.70;98.00;;;;;;5034498;28;20460;-63
2023/11/09 12:21:22;;;;;;;2.10;1.60;;;12.70;98.00;;;;;;5034030;28;20841;-63
2023/11/09 12:23:56;;;;;;;1.30;1.20;;;12.80;98.00;;;;;;5034585;28;20450;-63
2023/11/09 12:26:24;;;;;;;6.60;1.67;;;12.70;98.00;;;;;;5034827;28;20534;-63
2023/11/09 12:28:53;;;;;;;3.53;1.73;;;12.70;98.00;;;;;;5034840;28;20489;-63
2023/11/09 12:31:24;;;;;;;1.57;1.30;;;12.80;98.00;;;;;;5035602;28;20479;-63
2023/11/09 12:34:03;;;;;;;3.23;1.63;;;12.80;98.00;;;;;;5035118;28;20461;-63
2023/11/09 12:36:30;;;;;;;1.40;1.40;;;12.90;98.00;;;;;;5034210;28;20457;-63
2023/11/09 12:38:59;;;;;;;2.47;1.53;;;13.00;98.00;;;;;;5034988;28;20965;-63
2023/11/09 12:41:26;;;;;;;1.77;1.30;;;13.00;98.00;;;;;;5034344;28;20487;-63
2023/11/09 12:43:53;;;;;;;1.73;1.40;;;13.10;98.00;;;;;;5033178;28;20517;-63
2023/11/09 12:46:27;;;;;;;1.70;1.33;;;13.10;98.00;;;;;;5034627;28;20514;-63
2023/11/09 12:48:56;;;;;;;2.40;1.40;;;13.20;98.00;;;;;;5033468;28;20470;-63
2023/11/09 12:51:25;;;;;;;1.60;1.30;;;13.30;98.00;;;;;;5033706;28;20488;-63
2023/11/09 12:53:52;;;;;;;1.60;1.30;;;13.30;98.00;;;;;;5034546;28;20456;-63
2023/11/09 12:56:22;;;;;;;1.60;1.50;;;13.40;98.00;;;;;;5034249;28;20915;-63
2023/11/09 12:58:49;;;;;;;2.43;1.70;;;13.60;98.00;;;;;;5034279;28;20464;-63
2023/11/09 13:01:17;;;;;;;1.57;1.50;;;13.70;98.00;;;;;;5034221;28;20490;-62
2023/11/09 13:03:45;;;;;;;1.73;1.40;;;13.80;98.00;;;;;;5034516;28;20460;-62
2023/11/09 13:06:15;;;;;;;2.03;1.50;;;13.80;98.00;;;;;;5034211;28;20554;-62
2023/11/09 13:08:43;;;;;;;1.77;1.40;;;13.90;98.00;;;;;;5034267;28;20926;-62
2023/11/09 13:11:13;;;;;;;1.60;1.30;;;13.80;98.00;;;;;;5034463;28;20482;-62
2023/11/09 13:13:58;;;;;;;1.73;1.40;;;13.80;98.00;;;;;;5034588;28;20492;-62
2023/11/09 13:16:26;;;;;;;1.30;1.30;;;13.80;98.00;;;;;;5034051;28;20504;-63
2023/11/09 13:18:55;;;;;;;1.50;1.40;;;13.70;98.00;;;;;;5034235;28;20456;-63
2023/11/09 13:21:25;;;;;;;1.47;1.30;;;13.70;98.00;;;;;;5033871;28;20488;-63